Dalesburg, Kentucky
Current Conditions -  °F | °C
As of 7:55 PM on Wednesday 22 Oct 2014 (Local Time) from KFGX Reporting Station
Overcast Overcast  
Wind Chill: 49°   Ceiling: 3000
Heat Index: 49°   Visibility: 10mi
Dew Point: 42°   Wind: 3mph
Humidity: 76%   Direction: 360°N
Pressure: 30.27"   Gusts: NA
Location:  38.436°N, 83.6931°W
Report Text: KFGX 222355Z AUTO 36003KT 10SM OVC030 10/05 A3027 RMK AO2 T00950054 10110 20095
Loading
Personal Weather Stations






























Interactive Weather Map
Tropical Storm Tracking
New forecast layout! Learn more

10-Day Weather Forecast

Advertisements
Track Severe Weather on mobile